createdAt,value
2019-06-26T00:00:18.075Z,-427.57
2019-06-26T00:01:18.374Z,-429.42
2019-06-26T00:02:18.813Z,-430.40
2019-06-26T00:03:19.255Z,-429.23
2019-06-26T00:04:19.702Z,-427.20
2019-06-26T00:05:20.129Z,-427.25
2019-06-26T00:06:20.613Z,-435.87
2019-06-26T00:07:20.985Z,-433.43
2019-06-26T00:08:21.400Z,-430.37
2019-06-26T00:09:21.822Z,-425.06
2019-06-26T00:10:22.316Z,-425.98
2019-06-26T00:11:22.686Z,-430.51
2019-06-26T00:12:23.153Z,-432.77
2019-06-26T00:13:26.109Z,-427.15
2019-06-26T00:14:24.040Z,-432.36
2019-06-26T00:15:24.527Z,-428.33
2019-06-26T00:16:24.853Z,-430.46
2019-06-26T00:17:25.313Z,-430.16
2019-06-26T00:18:25.970Z,-430.81
2019-06-26T00:19:26.179Z,-432.30
2019-06-26T00:20:26.648Z,-429.12
2019-06-26T00:21:27.048Z,-430.21
2019-06-26T00:22:27.549Z,-427.13
2019-06-26T00:23:27.882Z,-432.55
2019-06-26T00:24:28.349Z,-430.20
2019-06-26T00:25:28.819Z,-428.63
2019-06-26T00:26:29.217Z,-429.30
2019-06-26T00:27:29.667Z,-427.81
2019-06-26T00:28:30.080Z,-455.77
2019-06-26T00:29:30.501Z,-450.48
2019-06-26T00:30:31.016Z,-452.78
2019-06-26T00:31:31.473Z,-452.11
2019-06-26T00:32:31.832Z,-455.25
2019-06-26T00:33:32.227Z,-455.14
2019-06-26T00:34:32.672Z,-453.17
2019-06-26T00:35:33.146Z,-453.82
2019-06-26T00:36:33.546Z,-452.98
2019-06-26T00:37:34.001Z,-452.99
2019-06-26T00:38:34.420Z,-452.83
2019-06-26T00:39:34.993Z,-452.45
2019-06-26T00:40:35.321Z,-455.43
2019-06-26T00:41:35.711Z,-452.32
2019-06-26T00:42:36.165Z,-451.12
2019-06-26T00:43:42.308Z,-455.20
2019-06-26T00:44:38.018Z,-455.11
2019-06-26T00:45:37.480Z,-453.73
2019-06-26T00:46:37.892Z,-455.46
2019-06-26T00:47:38.395Z,-459.15
2019-06-26T00:48:38.748Z,-458.56
2019-06-26T00:49:39.182Z,-454.19
2019-06-26T00:50:39.630Z,-460.47
2019-06-26T00:51:40.046Z,-456.80
2019-06-26T00:52:40.507Z,-460.35
2019-06-26T00:53:40.926Z,-456.24
2019-06-26T00:54:41.363Z,-457.58
2019-06-26T00:55:41.941Z,-457.98
2019-06-26T00:56:42.199Z,-456.94
2019-06-26T00:57:42.670Z,-452.78
2019-06-26T00:58:43.100Z,-455.48
2019-06-26T00:59:43.521Z,-454.53
2019-06-26T01:00:44.060Z,-453.44
2019-06-26T01:01:44.398Z,-457.51
2019-06-26T01:02:44.875Z,-456.44
2019-06-26T01:03:45.314Z,-454.10
2019-06-26T01:04:45.668Z,-458.65
2019-06-26T01:05:46.150Z,-452.63
2019-06-26T01:06:46.550Z,-457.21
2019-06-26T01:07:47.005Z,-455.10
2019-06-26T01:08:47.404Z,-458.48
2019-06-26T01:09:47.855Z,-458.04
2019-06-26T01:10:48.325Z,-452.45
2019-06-26T01:11:48.740Z,-459.43
2019-06-26T01:12:49.225Z,-460.67
2019-06-26T01:13:57.757Z,-460.40
2019-06-26T01:14:51.037Z,-453.33
2019-06-26T01:15:50.493Z,-452.88
2019-06-26T01:16:50.892Z,-457.83
2019-06-26T01:17:51.327Z,-457.88
2019-06-26T01:18:51.775Z,-455.39
2019-06-26T01:19:52.208Z,-452.19
2019-06-26T01:20:52.806Z,-455.35
2019-06-26T01:21:53.109Z,-455.59
2019-06-26T01:22:53.545Z,-461.62
2019-06-26T01:23:53.995Z,-456.26
2019-06-26T01:24:54.400Z,-456.83
2019-06-26T01:25:54.896Z,-458.20
2019-06-26T01:26:55.290Z,-459.50
2019-06-26T01:27:55.720Z,-460.33
2019-06-26T01:28:56.272Z,-454.63
2019-06-26T01:29:56.574Z,-455.28
2019-06-26T01:30:57.050Z,-449.55
2019-06-26T01:31:57.453Z,-461.26
2019-06-26T01:32:57.886Z,-456.13
2019-06-26T01:33:58.361Z,-452.93
2019-06-26T01:34:58.755Z,-454.02
2019-06-26T01:35:59.210Z,-453.87
2019-06-26T01:36:59.682Z,-456.65
2019-06-26T01:38:00.056Z,-451.92
2019-06-26T01:39:00.513Z,-460.39
2019-06-26T01:40:00.931Z,-456.99
2019-06-26T01:41:01.420Z,-454.06
2019-06-26T01:42:01.779Z,-466.61
2019-06-26T01:43:02.320Z,-453.11
2019-06-26T01:44:13.668Z,-460.93
2019-06-26T01:45:04.148Z,-453.54
2019-06-26T01:46:03.539Z,-452.59
2019-06-26T01:47:03.931Z,-457.37
2019-06-26T01:48:04.368Z,-453.30
2019-06-26T01:49:04.837Z,-453.06
2019-06-26T01:50:05.265Z,-453.06
2019-06-26T01:51:05.728Z,-450.64
2019-06-26T01:52:06.122Z,-459.91
2019-06-26T01:53:06.591Z,-455.11
2019-06-26T01:54:07.081Z,-457.25
2019-06-26T01:55:07.436Z,-450.74
2019-06-26T01:56:08.094Z,-459.53
2019-06-26T01:57:08.522Z,-446.27
2019-06-26T01:58:08.738Z,-453.54
2019-06-26T01:59:09.178Z,-459.74
2019-06-26T02:00:09.681Z,-454.64
2019-06-26T02:01:10.105Z,-457.08
2019-06-26T02:02:10.613Z,-455.09
2019-06-26T02:03:10.923Z,-453.20
2019-06-26T02:04:11.357Z,-450.22
2019-06-26T02:05:11.790Z,-456.23
2019-06-26T02:06:12.282Z,-453.17
2019-06-26T02:07:12.651Z,-449.43
2019-06-26T02:08:13.088Z,-457.22
2019-06-26T02:09:13.538Z,-453.57
2019-06-26T02:10:14.077Z,-451.96
2019-06-26T02:11:14.430Z,-455.54
2019-06-26T02:12:14.831Z,-456.43
2019-06-26T02:13:15.266Z,-453.68
2019-06-26T02:14:29.614Z,-454.94
2019-06-26T02:15:17.116Z,-454.20
2019-06-26T02:16:16.581Z,-463.74
2019-06-26T02:17:17.000Z,-439.67
2019-06-26T02:18:17.498Z,-449.16
2019-06-26T02:19:17.877Z,-445.31
2019-06-26T02:20:18.272Z,-443.05
2019-06-26T02:21:18.743Z,-452.43
2019-06-26T02:22:19.307Z,-450.11
2019-06-26T02:23:19.636Z,-450.62
2019-06-26T02:24:20.076Z,-450.30
2019-06-26T02:25:20.490Z,-457.52
2019-06-26T02:26:20.985Z,-454.45
2019-06-26T02:27:21.358Z,-451.67
2019-06-26T02:28:21.816Z,-453.51
2019-06-26T02:29:22.330Z,-456.60
2019-06-26T02:30:22.676Z,-459.36
2019-06-26T02:31:23.140Z,-454.53
2019-06-26T02:32:23.572Z,-461.92
2019-06-26T02:33:23.973Z,-455.60
2019-06-26T02:34:24.480Z,-449.59
2019-06-26T02:35:24.876Z,-443.64
2019-06-26T02:36:25.312Z,-441.07
2019-06-26T02:37:25.721Z,-449.64
2019-06-26T02:38:26.146Z,-449.29
2019-06-26T02:39:26.608Z,-440.88
2019-06-26T02:40:27.024Z,-450.83
2019-06-26T02:41:27.478Z,-450.54
2019-06-26T02:42:27.946Z,-449.53
2019-06-26T02:43:28.425Z,-456.65
2019-06-26T02:44:28.811Z,-455.30
2019-06-26T02:45:29.214Z,-445.44
2019-06-26T02:46:29.671Z,-438.14
2019-06-26T02:47:30.117Z,-450.83
2019-06-26T02:48:30.501Z,-442.60
2019-06-26T02:49:30.955Z,-446.60
2019-06-26T02:50:31.378Z,-435.82
2019-06-26T02:51:32.023Z,-447.45
2019-06-26T02:52:32.265Z,-416.90
2019-06-26T02:53:32.677Z,-420.55
2019-06-26T02:54:33.144Z,-457.18
2019-06-26T02:55:33.583Z,-415.98
2019-06-26T02:56:34.031Z,-444.84
2019-06-26T02:57:34.468Z,-438.10
2019-06-26T02:58:34.891Z,-437.47
2019-06-26T02:59:35.372Z,-414.29
2019-06-26T03:00:35.734Z,-446.31
2019-06-26T03:01:36.195Z,-445.83
2019-06-26T03:02:36.647Z,-452.65
2019-06-26T03:03:37.041Z,-442.63
2019-06-26T03:04:37.497Z,-449.11
2019-06-26T03:05:37.893Z,-449.77
2019-06-26T03:06:38.365Z,-455.20
2019-06-26T03:07:38.865Z,-455.69
2019-06-26T03:08:39.206Z,-460.42
2019-06-26T03:09:39.758Z,-456.46
2019-06-26T03:10:40.081Z,-455.30
2019-06-26T03:11:40.516Z,-427.91
2019-06-26T03:12:40.964Z,-421.24
2019-06-26T03:13:41.390Z,-430.30
2019-06-26T03:14:41.846Z,-425.12
2019-06-26T03:15:42.308Z,-423.99
2019-06-26T03:16:42.709Z,-415.21
2019-06-26T03:17:54.111Z,-410.21
2019-06-26T03:18:44.574Z,-416.22
2019-06-26T03:19:44.026Z,-420.46
2019-06-26T03:20:44.435Z,-415.83
2019-06-26T03:21:44.908Z,-419.26
2019-06-26T03:22:45.298Z,-422.44
2019-06-26T03:23:45.746Z,-419.82
2019-06-26T03:24:46.295Z,-417.57
2019-06-26T03:25:46.609Z,-419.07
2019-06-26T03:26:47.073Z,-419.15
2019-06-26T03:27:47.483Z,-423.41
2019-06-26T03:28:47.916Z,-424.60
2019-06-26T03:29:48.369Z,-427.10
2019-06-26T03:30:48.818Z,-420.52
2019-06-26T03:31:49.277Z,-423.30
2019-06-26T03:32:49.828Z,-422.04
2019-06-26T03:33:50.117Z,-407.04
2019-06-26T03:34:50.551Z,-422.08
2019-06-26T03:35:51.231Z,-414.41
2019-06-26T03:36:51.438Z,-414.06
2019-06-26T03:37:51.880Z,-408.43
2019-06-26T03:38:52.280Z,-413.10
2019-06-26T03:39:52.719Z,-411.33
2019-06-26T03:40:53.240Z,-413.40
2019-06-26T03:41:53.618Z,-418.68
2019-06-26T03:42:54.041Z,-416.29
2019-06-26T03:43:54.459Z,-407.71
2019-06-26T03:44:54.904Z,-413.24
2019-06-26T03:45:55.338Z,-406.29
2019-06-26T03:46:55.778Z,-410.96
2019-06-26T03:47:56.211Z,-418.81
2019-06-26T03:48:56.651Z,-413.14
2019-06-26T03:49:57.028Z,-413.03
2019-06-26T03:50:57.482Z,-412.38
2019-06-26T03:51:57.954Z,-416.50
2019-06-26T03:52:58.374Z,-408.43
2019-06-26T03:53:58.784Z,-417.24
2019-06-26T03:54:59.227Z,-409.22
2019-06-26T03:55:59.665Z,-419.21
2019-06-26T03:57:00.170Z,-413.33
2019-06-26T03:58:00.548Z,-407.28
2019-06-26T03:59:00.975Z,-415.51
2019-06-26T04:00:01.907Z,-400.57
2019-06-26T04:01:01.887Z,-405.39
2019-06-26T04:02:02.311Z,-388.74
2019-06-26T04:03:02.716Z,-396.65
2019-06-26T04:04:03.148Z,-387.66
2019-06-26T04:05:03.603Z,-393.53
2019-06-26T04:06:04.132Z,-408.16
2019-06-26T04:07:04.452Z,-418.34
2019-06-26T04:08:04.892Z,-415.64
2019-06-26T04:09:05.322Z,-414.41
2019-06-26T04:10:05.771Z,-425.08
2019-06-26T04:11:06.217Z,-416.20
2019-06-26T04:12:06.643Z,-422.99
2019-06-26T04:13:07.085Z,-425.53
2019-06-26T04:14:07.566Z,-414.93
2019-06-26T04:15:07.934Z,-416.43
2019-06-26T04:16:08.384Z,-412.28
2019-06-26T04:17:08.810Z,-417.54
2019-06-26T04:18:09.232Z,-418.49
2019-06-26T04:19:09.681Z,-414.41
2019-06-26T04:20:10.111Z,-396.28
2019-06-26T04:21:10.568Z,-406.25
2019-06-26T04:22:11.115Z,-398.03
2019-06-26T04:23:11.415Z,-409.06
2019-06-26T04:24:11.817Z,-396.18
2019-06-26T04:25:12.268Z,-397.16
2019-06-26T04:26:12.720Z,-408.45
2019-06-26T04:27:13.138Z,-409.32
2019-06-26T04:28:13.571Z,-402.59
2019-06-26T04:29:14.006Z,-392.69
2019-06-26T04:30:14.476Z,-397.36
2019-06-26T04:31:14.880Z,-392.16
2019-06-26T04:32:15.318Z,-416.98
2019-06-26T04:33:15.733Z,-419.53
2019-06-26T04:34:16.183Z,-387.82
2019-06-26T04:35:16.618Z,-387.51
2019-06-26T04:36:17.056Z,-395.91
2019-06-26T04:37:17.506Z,-387.26
2019-06-26T04:38:17.997Z,-393.18
2019-06-26T04:39:18.349Z,-398.29
2019-06-26T04:40:20.326Z,-393.89
2019-06-26T04:41:19.230Z,-387.98
2019-06-26T04:42:19.673Z,-363.22
2019-06-26T04:43:20.113Z,-371.86
2019-06-26T04:44:20.566Z,-385.24
2019-06-26T04:45:20.978Z,-370.33
2019-06-26T04:46:21.453Z,-371.82
2019-06-26T04:47:21.900Z,-383.78
2019-06-26T04:48:22.279Z,-385.02
2019-06-26T04:49:22.733Z,-395.55
2019-06-26T04:50:23.147Z,-385.98
2019-06-26T04:51:23.601Z,-394.62
2019-06-26T04:52:24.034Z,-385.01
2019-06-26T04:53:24.439Z,-397.06
2019-06-26T04:54:24.938Z,-370.40
2019-06-26T04:55:25.469Z,-386.64
2019-06-26T04:56:25.765Z,-376.31
2019-06-26T04:57:26.194Z,-391.77
2019-06-26T04:58:26.619Z,-390.68
2019-06-26T04:59:27.082Z,-388.80
2019-06-26T05:00:27.504Z,-393.02
2019-06-26T05:01:27.959Z,-389.57
2019-06-26T05:02:28.410Z,-399.77
2019-06-26T05:03:28.941Z,-401.68
2019-06-26T05:04:29.253Z,-399.36
2019-06-26T05:05:38.898Z,-397.15
2019-06-26T05:06:31.126Z,-398.87
2019-06-26T05:07:30.554Z,-394.18
2019-06-26T05:08:30.974Z,-395.26
2019-06-26T05:09:31.406Z,-401.09
2019-06-26T05:10:31.835Z,-412.63
2019-06-26T05:11:32.381Z,-419.32
2019-06-26T05:12:33.517Z,-418.24
2019-06-26T05:13:33.136Z,-416.65
2019-06-26T05:14:33.810Z,-416.66
2019-06-26T05:15:33.988Z,-411.90
2019-06-26T05:16:34.452Z,-404.81
2019-06-26T05:17:34.911Z,-357.31
2019-06-26T05:18:35.309Z,-379.68
2019-06-26T05:19:35.793Z,-404.08
2019-06-26T05:20:36.137Z,-400.37
2019-06-26T05:21:36.613Z,-415.81
2019-06-26T05:22:37.060Z,-416.53
2019-06-26T05:23:37.484Z,-415.07
2019-06-26T05:24:37.940Z,-413.29
2019-06-26T05:25:38.364Z,-429.55
2019-06-26T05:26:38.821Z,-415.82
2019-06-26T05:27:39.274Z,-414.29
2019-06-26T05:28:39.733Z,-408.21
2019-06-26T05:29:40.108Z,-406.62
2019-06-26T05:30:40.533Z,-406.91
2019-06-26T05:31:40.939Z,-405.43
2019-06-26T05:32:41.402Z,-408.63
2019-06-26T05:33:41.838Z,-410.60
2019-06-26T05:34:42.290Z,-410.84
2019-06-26T05:35:42.719Z,-411.08
2019-06-26T05:36:43.260Z,-412.82
2019-06-26T05:37:43.602Z,-416.63
2019-06-26T05:38:44.576Z,-399.58
2019-06-26T05:39:44.489Z,-401.35
2019-06-26T05:40:44.908Z,-421.72
2019-06-26T05:41:45.344Z,-400.09
2019-06-26T05:42:45.806Z,-405.72
2019-06-26T05:43:46.233Z,-398.48
2019-06-26T05:44:46.840Z,-416.48
2019-06-26T05:45:47.102Z,-411.40
2019-06-26T05:46:47.540Z,-410.35
2019-06-26T05:47:47.995Z,-412.14
2019-06-26T05:48:48.409Z,-411.03
2019-06-26T05:49:48.881Z,-409.53
2019-06-26T05:50:49.295Z,-415.94
2019-06-26T05:51:49.789Z,-409.67
2019-06-26T05:52:50.234Z,-413.80
2019-06-26T05:53:50.568Z,-409.83
2019-06-26T05:54:51.048Z,-406.47
2019-06-26T05:55:51.456Z,-415.68
2019-06-26T05:56:51.957Z,-412.70
2019-06-26T05:57:52.411Z,-403.35
2019-06-26T05:58:52.762Z,-415.39
2019-06-26T05:59:53.213Z,-417.94
2019-06-26T06:00:53.683Z,-408.07
2019-06-26T06:01:54.067Z,-405.02
2019-06-26T06:02:54.509Z,-416.15
2019-06-26T06:03:54.926Z,-406.95
2019-06-26T06:04:55.376Z,-399.94
2019-06-26T06:05:55.775Z,-397.37
2019-06-26T06:06:56.253Z,-406.12
2019-06-26T06:07:56.686Z,-390.00
2019-06-26T06:08:57.187Z,-409.79
2019-06-26T06:09:57.616Z,-437.75
2019-06-26T06:10:58.256Z,-434.04
2019-06-26T06:11:58.445Z,-434.10
2019-06-26T06:12:58.881Z,-442.61
2019-06-26T06:13:59.307Z,-435.25
2019-06-26T06:14:59.742Z,-438.52
2019-06-26T06:16:00.167Z,-446.15
2019-06-26T06:17:00.631Z,-443.65
2019-06-26T06:18:01.180Z,-429.15
2019-06-26T06:19:01.469Z,-424.73
2019-06-26T06:20:02.101Z,-425.76
2019-06-26T06:21:02.337Z,-420.12
2019-06-26T06:22:02.776Z,-416.79
2019-06-26T06:23:03.223Z,-417.38
2019-06-26T06:24:03.656Z,-437.80
2019-06-26T06:25:04.141Z,-431.50
2019-06-26T06:26:04.658Z,-431.38
2019-06-26T06:27:04.981Z,-441.41
2019-06-26T06:28:05.410Z,-441.96
2019-06-26T06:29:05.831Z,-428.32
2019-06-26T06:30:06.286Z,-422.67
2019-06-26T06:31:06.705Z,-429.00
2019-06-26T06:32:07.159Z,-429.58
2019-06-26T06:33:07.575Z,-430.47
2019-06-26T06:34:08.092Z,-422.57
2019-06-26T06:35:08.443Z,-420.61
2019-06-26T06:36:09.634Z,-437.37
2019-06-26T06:37:09.319Z,-424.68
2019-06-26T06:38:09.758Z,-426.55
2019-06-26T06:39:10.159Z,-429.78
2019-06-26T06:40:10.605Z,-445.52
2019-06-26T06:41:11.039Z,-436.05
2019-06-26T06:42:11.552Z,-428.46
2019-06-26T06:43:11.910Z,-417.79
2019-06-26T06:44:12.333Z,-427.65
2019-06-26T06:45:12.756Z,-429.07
2019-06-26T06:46:13.227Z,-434.62
2019-06-26T06:47:13.673Z,-452.64
2019-06-26T06:48:14.111Z,-445.91
2019-06-26T06:49:14.528Z,-450.33
2019-06-26T06:50:15.221Z,-444.07
2019-06-26T06:51:15.391Z,-432.62
2019-06-26T06:52:16.595Z,-432.74
2019-06-26T06:53:16.277Z,-410.87
2019-06-26T06:54:16.697Z,-416.91
2019-06-26T06:55:17.135Z,-441.69
2019-06-26T06:56:17.580Z,-438.83
2019-06-26T06:57:18.017Z,-438.00
2019-06-26T06:58:18.495Z,-448.34
2019-06-26T06:59:18.964Z,-430.53
2019-06-26T07:00:19.317Z,-431.93
2019-06-26T07:01:19.753Z,-430.95
2019-06-26T07:02:20.585Z,-437.37
2019-06-26T07:03:20.672Z,-435.02
2019-06-26T07:04:21.089Z,-430.67
2019-06-26T07:05:21.522Z,-435.35
2019-06-26T07:06:21.982Z,-429.26
2019-06-26T07:07:22.508Z,-428.46
2019-06-26T07:08:22.841Z,-452.03
2019-06-26T07:09:23.261Z,-449.28
2019-06-26T07:10:23.695Z,-437.58
2019-06-26T07:11:24.148Z,-434.32
2019-06-26T07:12:24.576Z,-427.95
2019-06-26T07:13:25.025Z,-430.86
2019-06-26T07:14:25.452Z,-432.23
2019-06-26T07:15:25.961Z,-444.46
2019-06-26T07:16:26.324Z,-434.88
2019-06-26T07:17:26.748Z,-435.59
2019-06-26T07:18:27.178Z,-441.73
2019-06-26T07:19:27.613Z,-445.92
2019-06-26T07:20:28.045Z,-450.06
2019-06-26T07:21:28.497Z,-449.73
2019-06-26T07:22:28.931Z,-453.93
2019-06-26T07:23:29.404Z,-450.15
2019-06-26T07:24:29.758Z,-449.40
2019-06-26T07:25:30.212Z,-452.80
2019-06-26T07:26:30.659Z,-452.90
2019-06-26T07:27:31.095Z,-458.67
2019-06-26T07:28:31.539Z,-450.32
2019-06-26T07:29:31.967Z,-454.76
2019-06-26T07:30:32.357Z,-443.83
2019-06-26T07:31:32.892Z,-448.57
2019-06-26T07:32:33.249Z,-452.87
2019-06-26T07:33:33.717Z,-437.89
2019-06-26T07:34:34.113Z,-428.65
2019-06-26T07:35:34.579Z,-464.25
2019-06-26T07:36:35.000Z,-456.77
2019-06-26T07:37:35.449Z,-451.11
2019-06-26T07:38:35.883Z,-454.73
2019-06-26T07:39:36.340Z,-435.18
2019-06-26T07:40:36.795Z,-431.42
2019-06-26T07:41:37.187Z,-447.91
2019-06-26T07:42:37.623Z,-449.72
2019-06-26T07:43:38.056Z,-452.49
2019-06-26T07:44:38.472Z,-456.40
2019-06-26T07:45:38.916Z,-445.53
2019-06-26T07:46:39.349Z,-460.03
2019-06-26T07:47:43.504Z,-453.39
2019-06-26T07:48:40.362Z,-454.27
2019-06-26T07:49:40.651Z,-453.21
2019-06-26T07:50:41.076Z,-457.55
2019-06-26T07:51:41.506Z,-455.27
2019-06-26T07:52:41.956Z,-454.21
2019-06-26T07:53:42.402Z,-455.50
2019-06-26T07:54:42.829Z,-462.00
2019-06-26T07:55:43.616Z,-471.49
2019-06-26T07:56:43.807Z,-466.70
2019-06-26T07:57:44.138Z,-466.20
2019-06-26T07:58:44.597Z,-457.45
2019-06-26T07:59:45.034Z,-465.22
2019-06-26T08:00:45.486Z,-463.87
2019-06-26T08:01:45.917Z,-422.99
2019-06-26T08:02:46.334Z,-447.31
2019-06-26T08:03:46.786Z,-451.45
2019-06-26T08:04:47.254Z,-464.85
2019-06-26T08:05:47.635Z,-453.18
2019-06-26T08:06:48.091Z,-456.05
2019-06-26T08:07:48.522Z,-453.56
2019-06-26T08:08:48.926Z,-439.80
2019-06-26T08:09:49.389Z,-433.21
2019-06-26T08:10:49.829Z,-450.76
2019-06-26T08:11:50.277Z,-415.02
2019-06-26T08:12:50.842Z,-428.67
2019-06-26T08:13:51.149Z,-437.35
2019-06-26T08:14:51.545Z,-440.42
2019-06-26T08:15:51.986Z,-431.33
2019-06-26T08:16:52.473Z,-445.78
2019-06-26T08:18:00.691Z,-447.69
2019-06-26T08:18:54.316Z,-444.25
2019-06-26T08:19:53.765Z,-440.82
2019-06-26T08:21:10.842Z,-436.88
2019-06-26T08:21:55.684Z,-435.58
2019-06-26T08:22:55.063Z,-432.25
2019-06-26T08:23:55.473Z,-442.49
2019-06-26T08:24:55.936Z,-435.22
2019-06-26T08:25:56.335Z,-430.44
2019-06-26T08:26:56.790Z,-424.91
2019-06-26T08:27:57.241Z,-440.22
2019-06-26T08:28:57.672Z,-444.44
2019-06-26T08:29:58.236Z,-440.46
2019-06-26T08:30:58.509Z,-439.60
2019-06-26T08:31:59.205Z,-430.95
2019-06-26T08:32:59.417Z,-435.45
2019-06-26T08:33:59.822Z,-434.34
2019-06-26T08:35:00.322Z,-445.18
2019-06-26T08:36:00.694Z,-438.84
2019-06-26T08:37:01.152Z,-441.43
2019-06-26T08:38:09.767Z,-451.14
2019-06-26T08:39:02.998Z,-446.41
2019-06-26T08:40:02.448Z,-448.04
2019-06-26T08:41:02.865Z,-451.66
2019-06-26T08:42:03.328Z,-445.01
2019-06-26T08:43:03.732Z,-445.97
2019-06-26T08:44:04.179Z,-442.37
2019-06-26T08:45:04.664Z,-449.15
2019-06-26T08:46:05.102Z,-448.98
2019-06-26T08:47:05.475Z,-451.93
2019-06-26T08:48:17.329Z,-439.02
2019-06-26T08:49:20.949Z,-444.43
2019-06-26T08:50:07.783Z,-433.02
2019-06-26T08:51:07.216Z,-433.12
2019-06-26T08:52:07.654Z,-426.68
2019-06-26T08:53:08.088Z,-438.24
2019-06-26T08:54:08.552Z,-432.87
2019-06-26T08:55:08.940Z,-427.24
2019-06-26T08:56:09.372Z,-441.52
2019-06-26T08:57:09.812Z,-442.37
2019-06-26T08:58:10.269Z,-445.39
2019-06-26T08:59:10.671Z,-454.95
2019-06-26T09:00:11.201Z,-450.39
2019-06-26T09:01:11.553Z,-416.51
2019-06-26T09:02:12.028Z,-446.94
2019-06-26T09:03:12.529Z,-445.08
2019-06-26T09:04:12.878Z,-458.14
2019-06-26T09:05:13.318Z,-451.77
2019-06-26T09:06:13.747Z,-431.50
2019-06-26T09:07:14.198Z,-441.34
2019-06-26T09:08:14.775Z,-432.96
2019-06-26T09:09:15.087Z,-426.86
2019-06-26T09:10:15.553Z,-439.09
2019-06-26T09:11:16.073Z,-455.75
2019-06-26T09:12:16.391Z,-434.03
2019-06-26T09:13:16.875Z,-433.31
2019-06-26T09:14:17.265Z,-433.83
2019-06-26T09:15:17.716Z,-444.66
2019-06-26T09:16:18.126Z,-434.58
2019-06-26T09:17:18.562Z,-431.75
2019-06-26T09:18:31.096Z,-421.98
2019-06-26T09:19:20.615Z,-439.41
2019-06-26T09:20:19.924Z,-440.38
2019-06-26T09:21:20.317Z,-416.32
2019-06-26T09:22:20.769Z,-440.84
2019-06-26T09:23:21.244Z,-432.81
2019-06-26T09:24:21.637Z,-446.54
2019-06-26T09:25:22.665Z,-452.17
2019-06-26T09:26:22.508Z,-438.55
2019-06-26T09:27:22.983Z,-422.27
2019-06-26T09:28:23.395Z,-431.10
2019-06-26T09:29:24.200Z,-424.87
2019-06-26T09:30:24.258Z,-426.87
2019-06-26T09:31:24.667Z,-430.91
2019-06-26T09:32:25.090Z,-444.49
2019-06-26T09:33:25.559Z,-441.15
2019-06-26T09:34:25.976Z,-447.16
2019-06-26T09:35:26.534Z,-454.82
2019-06-26T09:36:26.822Z,-446.25
2019-06-26T09:37:27.265Z,-454.44
2019-06-26T09:38:27.741Z,-459.88
2019-06-26T09:39:28.115Z,-450.63
2019-06-26T09:40:31.595Z,-426.53
2019-06-26T09:41:29.052Z,-440.18
2019-06-26T09:42:29.447Z,-424.10
2019-06-26T09:43:29.955Z,-434.37
2019-06-26T09:44:30.371Z,-443.70
2019-06-26T09:45:30.769Z,-437.36
2019-06-26T09:46:31.181Z,-441.29
2019-06-26T09:47:31.607Z,-424.33
2019-06-26T09:48:32.100Z,-429.94
2019-06-26T09:49:32.536Z,-450.69
2019-06-26T09:50:32.925Z,-447.91
2019-06-26T09:51:33.381Z,-430.06
2019-06-26T09:52:33.917Z,-358.37
2019-06-26T09:53:45.939Z,-442.02
2019-06-26T09:54:35.649Z,-423.89
2019-06-26T09:55:35.114Z,-435.60
2019-06-26T09:56:35.546Z,-424.88
2019-06-26T09:57:36.063Z,-434.48
2019-06-26T09:58:36.439Z,-455.24
2019-06-26T09:59:36.852Z,-426.34
2019-06-26T10:00:37.431Z,-442.95
2019-06-26T10:01:37.734Z,-442.91
2019-06-26T10:02:38.195Z,-440.62
2019-06-26T10:03:38.609Z,-432.06
2019-06-26T10:04:39.028Z,-449.25
2019-06-26T10:05:39.450Z,-433.40
2019-06-26T10:06:39.883Z,-425.04
2019-06-26T10:07:40.357Z,-413.85
2019-06-26T10:08:40.878Z,-431.05
2019-06-26T10:09:41.245Z,-427.49
2019-06-26T10:10:41.623Z,-443.13
2019-06-26T10:11:42.134Z,-434.99
2019-06-26T10:12:42.539Z,-437.14
2019-06-26T10:13:42.965Z,-434.27
2019-06-26T10:14:47.838Z,-440.83
2019-06-26T10:15:43.825Z,-428.11
2019-06-26T10:16:44.326Z,-439.36
2019-06-26T10:17:44.692Z,-429.07
2019-06-26T10:18:45.149Z,-430.92
2019-06-26T10:19:45.568Z,-431.99
2019-06-26T10:20:46.005Z,-438.71
2019-06-26T10:21:46.467Z,-445.52
2019-06-26T10:22:46.865Z,-439.16
2019-06-26T10:23:47.309Z,-436.44
2019-06-26T10:24:47.814Z,-446.97
2019-06-26T10:25:48.203Z,-445.81
2019-06-26T10:26:48.669Z,-452.62
2019-06-26T10:27:49.069Z,-430.34
2019-06-26T10:28:49.529Z,-435.13
2019-06-26T10:29:49.922Z,-442.74
2019-06-26T10:30:50.417Z,-433.70
2019-06-26T10:31:50.851Z,-432.29
2019-06-26T10:32:51.255Z,-417.10
2019-06-26T10:33:51.805Z,-427.28
2019-06-26T10:34:52.172Z,-438.57
2019-06-26T10:35:52.544Z,-444.10
2019-06-26T10:36:53.026Z,-435.52
2019-06-26T10:37:53.423Z,-436.88
2019-06-26T10:38:53.868Z,-429.64
2019-06-26T10:39:54.284Z,-420.99
2019-06-26T10:40:54.711Z,-442.38
2019-06-26T10:41:55.393Z,-431.95
2019-06-26T10:42:55.591Z,-443.16
2019-06-26T10:43:56.044Z,-428.29
2019-06-26T10:44:56.463Z,-437.01
2019-06-26T10:45:56.905Z,-434.92
2019-06-26T10:46:57.399Z,-417.79
2019-06-26T10:47:57.793Z,-431.37
2019-06-26T10:48:58.243Z,-436.26
2019-06-26T10:49:58.751Z,-434.00
2019-06-26T10:50:59.228Z,-435.53
2019-06-26T10:51:59.570Z,-442.11
2019-06-26T10:52:59.960Z,-445.67
2019-06-26T10:54:00.395Z,-444.00
2019-06-26T10:55:00.842Z,-428.48
2019-06-26T10:56:01.278Z,-429.87
2019-06-26T10:57:01.723Z,-430.64
2019-06-26T10:58:02.187Z,-432.43
2019-06-26T10:59:02.574Z,-437.24
2019-06-26T11:00:02.994Z,-433.04
2019-06-26T11:01:03.445Z,-440.42
2019-06-26T11:02:03.881Z,-437.44
2019-06-26T11:03:04.284Z,-430.81
2019-06-26T11:04:04.754Z,-445.39
2019-06-26T11:05:05.195Z,-443.67
2019-06-26T11:06:05.631Z,-450.54
2019-06-26T11:07:06.090Z,-430.67
2019-06-26T11:08:06.495Z,-425.33
2019-06-26T11:09:06.953Z,-425.40
2019-06-26T11:10:07.422Z,-442.88
2019-06-26T11:11:07.834Z,-440.83
2019-06-26T11:12:08.295Z,-427.90
2019-06-26T11:13:08.705Z,-447.23
2019-06-26T11:14:09.158Z,-448.63
2019-06-26T11:15:09.687Z,-438.55
2019-06-26T11:16:10.047Z,-462.41
2019-06-26T11:17:10.496Z,-439.28
2019-06-26T11:18:10.914Z,-428.93
2019-06-26T11:19:11.344Z,-445.15
2019-06-26T11:20:11.815Z,-444.65
2019-06-26T11:21:12.251Z,-434.35
2019-06-26T11:22:12.722Z,-419.12
2019-06-26T11:23:13.264Z,-439.46
2019-06-26T11:24:13.543Z,-443.16
2019-06-26T11:25:14.028Z,-426.30
2019-06-26T11:26:14.418Z,-427.36
2019-06-26T11:27:14.869Z,-431.87
2019-06-26T11:28:15.288Z,-430.29
2019-06-26T11:29:15.733Z,-431.86
2019-06-26T11:30:16.186Z,-451.84
2019-06-26T11:31:16.736Z,-426.45
2019-06-26T11:32:17.061Z,-450.76
2019-06-26T11:33:17.485Z,-436.88
2019-06-26T11:34:17.939Z,-425.11
2019-06-26T11:35:18.353Z,-436.16
2019-06-26T11:36:18.930Z,-418.86
2019-06-26T11:37:22.645Z,-427.64
2019-06-26T11:38:19.676Z,-428.11
2019-06-26T11:39:20.182Z,-458.83
2019-06-26T11:40:20.545Z,-432.62
2019-06-26T11:41:20.959Z,-438.80
2019-06-26T11:42:21.431Z,-450.34
2019-06-26T11:43:21.860Z,-423.09
2019-06-26T11:44:22.314Z,-428.61
2019-06-26T11:45:22.751Z,-435.93
2019-06-26T11:46:23.164Z,-443.44
2019-06-26T11:47:23.659Z,-404.18
2019-06-26T11:48:24.021Z,-407.56
2019-06-26T11:49:24.470Z,-432.37
2019-06-26T11:50:25.162Z,-420.90
2019-06-26T11:51:25.338Z,-430.75
2019-06-26T11:52:25.793Z,-428.80
2019-06-26T11:53:26.195Z,-436.76
2019-06-26T11:54:26.667Z,-443.19
2019-06-26T11:55:27.138Z,-439.28
2019-06-26T11:56:27.608Z,-430.41
2019-06-26T11:57:28.027Z,-456.77
2019-06-26T11:58:28.506Z,-448.03
2019-06-26T11:59:29.077Z,-456.15
2019-06-26T12:00:29.290Z,-440.87
2019-06-26T12:12:02.538Z,-394.99
2019-06-26T12:12:37.895Z,-441.58
2019-06-26T12:13:38.313Z,-455.29
2019-06-26T12:17:47.464Z,-369.89
2019-06-26T12:18:09.866Z,-457.30
2019-06-26T12:19:10.395Z,-436.40
2019-06-26T12:20:18.370Z,-440.39
2019-06-26T12:21:12.219Z,-442.05
2019-06-26T12:22:11.716Z,-446.81
2019-06-26T12:23:12.072Z,-436.04